sensor_id;sensor_type;location;lat;lon;timestamp;P1;durP1;ratioP1;P2;durP2;ratioP2
60969;SDS011;46841;48.938;9.502;2023-04-24T00:00:14;2.25;;;1.45;;
60969;SDS011;46841;48.938;9.502;2023-04-24T00:02:41;2.42;;;1.67;;
60969;SDS011;46841;48.938;9.502;2023-04-24T00:05:12;2.08;;;1.40;;
60969;SDS011;46841;48.938;9.502;2023-04-24T00:07:37;1.88;;;1.45;;
60969;SDS011;46841;48.938;9.502;2023-04-24T00:10:02;2.50;;;1.35;;
60969;SDS011;46841;48.938;9.502;2023-04-24T00:12:28;5.43;;;1.60;;
60969;SDS011;46841;48.938;9.502;2023-04-24T00:14:53;3.97;;;1.70;;
60969;SDS011;46841;48.938;9.502;2023-04-24T00:17:18;2.78;;;1.40;;
60969;SDS011;46841;48.938;9.502;2023-04-24T00:19:48;3.70;;;1.70;;
60969;SDS011;46841;48.938;9.502;2023-04-24T00:22:16;3.50;;;1.55;;
60969;SDS011;46841;48.938;9.502;2023-04-24T00:24:42;4.07;;;1.70;;
60969;SDS011;46841;48.938;9.502;2023-04-24T00:27:07;2.38;;;1.77;;
60969;SDS011;46841;48.938;9.502;2023-04-24T00:29:33;3.40;;;1.60;;
60969;SDS011;46841;48.938;9.502;2023-04-24T00:31:59;3.17;;;1.40;;
60969;SDS011;46841;48.938;9.502;2023-04-24T00:34:24;1.73;;;1.40;;
60969;SDS011;46841;48.938;9.502;2023-04-24T00:36:50;3.53;;;1.50;;
60969;SDS011;46841;48.938;9.502;2023-04-24T00:39:20;1.77;;;1.40;;
60969;SDS011;46841;48.938;9.502;2023-04-24T00:41:46;2.63;;;1.80;;
60969;SDS011;46841;48.938;9.502;2023-04-24T00:44:12;2.72;;;1.40;;
60969;SDS011;46841;48.938;9.502;2023-04-24T00:46:37;2.85;;;1.40;;
60969;SDS011;46841;48.938;9.502;2023-04-24T00:49:03;3.53;;;1.70;;
60969;SDS011;46841;48.938;9.502;2023-04-24T00:51:29;1.30;;;1.20;;
60969;SDS011;46841;48.938;9.502;2023-04-24T00:53:55;2.20;;;1.40;;
60969;SDS011;46841;48.938;9.502;2023-04-24T00:56:21;2.33;;;1.40;;
60969;SDS011;46841;48.938;9.502;2023-04-24T00:58:47;1.92;;;1.50;;
60969;SDS011;46841;48.938;9.502;2023-04-24T01:01:12;3.50;;;1.60;;
60969;SDS011;46841;48.938;9.502;2023-04-24T01:03:37;4.68;;;1.80;;
60969;SDS011;46841;48.938;9.502;2023-04-24T01:06:03;4.93;;;1.70;;
60969;SDS011;46841;48.938;9.502;2023-04-24T01:08:29;4.07;;;1.70;;
60969;SDS011;46841;48.938;9.502;2023-04-24T01:10:55;1.75;;;1.38;;
60969;SDS011;46841;48.938;9.502;2023-04-24T01:13:21;3.05;;;1.30;;
60969;SDS011;46841;48.938;9.502;2023-04-24T01:15:47;3.50;;;1.58;;
60969;SDS011;46841;48.938;9.502;2023-04-24T01:18:13;3.13;;;1.55;;
60969;SDS011;46841;48.938;9.502;2023-04-24T01:20:39;2.15;;;1.50;;
60969;SDS011;46841;48.938;9.502;2023-04-24T01:23:05;2.60;;;1.48;;
60969;SDS011;46841;48.938;9.502;2023-04-24T01:25:30;1.42;;;1.30;;
60969;SDS011;46841;48.938;9.502;2023-04-24T01:27:56;2.33;;;1.40;;
60969;SDS011;46841;48.938;9.502;2023-04-24T01:30:21;5.45;;;1.50;;
60969;SDS011;46841;48.938;9.502;2023-04-24T01:32:46;1.50;;;1.20;;
60969;SDS011;46841;48.938;9.502;2023-04-24T01:35:13;2.40;;;1.38;;
60969;SDS011;46841;48.938;9.502;2023-04-24T01:37:38;1.75;;;1.27;;
60969;SDS011;46841;48.938;9.502;2023-04-24T01:40:05;2.10;;;1.65;;
60969;SDS011;46841;48.938;9.502;2023-04-24T01:42:31;3.03;;;1.40;;
60969;SDS011;46841;48.938;9.502;2023-04-24T01:44:57;2.50;;;1.40;;
60969;SDS011;46841;48.938;9.502;2023-04-24T01:47:22;2.17;;;1.40;;
60969;SDS011;46841;48.938;9.502;2023-04-24T01:49:49;3.55;;;1.50;;
60969;SDS011;46841;48.938;9.502;2023-04-24T01:52:15;2.05;;;1.50;;
60969;SDS011;46841;48.938;9.502;2023-04-24T01:54:41;2.40;;;1.40;;
60969;SDS011;46841;48.938;9.502;2023-04-24T01:57:06;2.65;;;1.40;;
60969;SDS011;46841;48.938;9.502;2023-04-24T01:59:32;3.08;;;1.50;;
60969;SDS011;46841;48.938;9.502;2023-04-24T02:01:58;3.92;;;1.58;;
60969;SDS011;46841;48.938;9.502;2023-04-24T02:04:23;4.32;;;1.50;;
60969;SDS011;46841;48.938;9.502;2023-04-24T02:06:48;3.38;;;1.58;;
60969;SDS011;46841;48.938;9.502;2023-04-24T02:09:14;2.75;;;1.35;;
60969;SDS011;46841;48.938;9.502;2023-04-24T02:11:39;4.43;;;1.50;;
60969;SDS011;46841;48.938;9.502;2023-04-24T02:14:04;5.72;;;1.50;;
60969;SDS011;46841;48.938;9.502;2023-04-24T02:16:30;2.17;;;1.40;;
60969;SDS011;46841;48.938;9.502;2023-04-24T02:21:23;1.42;;;1.30;;
60969;SDS011;46841;48.938;9.502;2023-04-24T02:23:48;3.95;;;1.50;;
60969;SDS011;46841;48.938;9.502;2023-04-24T02:26:13;3.30;;;1.58;;
60969;SDS011;46841;48.938;9.502;2023-04-24T02:28:39;4.32;;;1.50;;
60969;SDS011;46841;48.938;9.502;2023-04-24T02:31:04;2.67;;;1.60;;
60969;SDS011;46841;48.938;9.502;2023-04-24T02:33:31;1.40;;;1.30;;
60969;SDS011;46841;48.938;9.502;2023-04-24T02:35:56;2.63;;;1.50;;
60969;SDS011;46841;48.938;9.502;2023-04-24T02:38:21;2.60;;;1.30;;
60969;SDS011;46841;48.938;9.502;2023-04-24T02:40:47;3.55;;;1.40;;
60969;SDS011;46841;48.938;9.502;2023-04-24T02:43:12;2.72;;;1.48;;
60969;SDS011;46841;48.938;9.502;2023-04-24T02:45:37;7.30;;;1.50;;
60969;SDS011;46841;48.938;9.502;2023-04-24T02:48:03;3.33;;;1.50;;
60969;SDS011;46841;48.938;9.502;2023-04-24T02:50:29;2.33;;;1.50;;
60969;SDS011;46841;48.938;9.502;2023-04-24T02:52:54;2.80;;;1.50;;
60969;SDS011;46841;48.938;9.502;2023-04-24T02:55:19;3.72;;;1.38;;
60969;SDS011;46841;48.938;9.502;2023-04-24T02:57:45;3.30;;;1.40;;
60969;SDS011;46841;48.938;9.502;2023-04-24T03:00:10;1.92;;;1.38;;
60969;SDS011;46841;48.938;9.502;2023-04-24T03:02:36;3.25;;;1.40;;
60969;SDS011;46841;48.938;9.502;2023-04-24T03:05:01;2.00;;;1.30;;
60969;SDS011;46841;48.938;9.502;2023-04-24T03:07:27;1.42;;;1.33;;
60969;SDS011;46841;48.938;9.502;2023-04-24T03:09:52;2.47;;;1.48;;
60969;SDS011;46841;48.938;9.502;2023-04-24T03:12:18;1.83;;;1.33;;
60969;SDS011;46841;48.938;9.502;2023-04-24T03:14:43;3.30;;;1.67;;
60969;SDS011;46841;48.938;9.502;2023-04-24T03:17:08;3.25;;;1.52;;
60969;SDS011;46841;48.938;9.502;2023-04-24T03:19:34;2.53;;;1.50;;
60969;SDS011;46841;48.938;9.502;2023-04-24T03:22:04;5.32;;;1.60;;
60969;SDS011;46841;48.938;9.502;2023-04-24T03:24:30;2.08;;;1.40;;
60969;SDS011;46841;48.938;9.502;2023-04-24T03:26:56;2.63;;;1.35;;
60969;SDS011;46841;48.938;9.502;2023-04-24T03:29:40;3.33;;;1.50;;
60969;SDS011;46841;48.938;9.502;2023-04-24T03:32:05;3.78;;;1.55;;
60969;SDS011;46841;48.938;9.502;2023-04-24T03:34:31;2.95;;;1.60;;
60969;SDS011;46841;48.938;9.502;2023-04-24T03:36:57;6.13;;;1.70;;
60969;SDS011;46841;48.938;9.502;2023-04-24T03:39:23;4.13;;;1.45;;
60969;SDS011;46841;48.938;9.502;2023-04-24T03:41:53;3.65;;;1.60;;
60969;SDS011;46841;48.938;9.502;2023-04-24T03:44:24;4.95;;;1.58;;
60969;SDS011;46841;48.938;9.502;2023-04-24T03:46:50;2.78;;;1.60;;
60969;SDS011;46841;48.938;9.502;2023-04-24T03:49:17;3.10;;;1.70;;
60969;SDS011;46841;48.938;9.502;2023-04-24T03:51:45;4.22;;;1.73;;
60969;SDS011;46841;48.938;9.502;2023-04-24T03:54:16;2.40;;;1.73;;
60969;SDS011;46841;48.938;9.502;2023-04-24T03:56:43;2.25;;;1.50;;
60969;SDS011;46841;48.938;9.502;2023-04-24T03:59:09;3.58;;;1.50;;
60969;SDS011;46841;48.938;9.502;2023-04-24T04:01:35;1.87;;;1.60;;
60969;SDS011;46841;48.938;9.502;2023-04-24T04:04:10;2.67;;;1.50;;
60969;SDS011;46841;48.938;9.502;2023-04-24T04:06:36;3.88;;;1.60;;
60969;SDS011;46841;48.938;9.502;2023-04-24T04:09:02;2.05;;;1.52;;
60969;SDS011;46841;48.938;9.502;2023-04-24T04:11:28;6.63;;;2.97;;
60969;SDS011;46841;48.938;9.502;2023-04-24T04:13:54;3.50;;;2.03;;
60969;SDS011;46841;48.938;9.502;2023-04-24T04:16:20;2.70;;;1.70;;
60969;SDS011;46841;48.938;9.502;2023-04-24T04:21:13;2.10;;;1.77;;
60969;SDS011;46841;48.938;9.502;2023-04-24T04:23:40;2.50;;;1.63;;
60969;SDS011;46841;48.938;9.502;2023-04-24T04:26:16;4.28;;;1.88;;
60969;SDS011;46841;48.938;9.502;2023-04-24T04:29:17;4.20;;;1.70;;
60969;SDS011;46841;48.938;9.502;2023-04-24T04:31:44;7.82;;;3.10;;
60969;SDS011;46841;48.938;9.502;2023-04-24T04:34:11;7.53;;;2.78;;
60969;SDS011;46841;48.938;9.502;2023-04-24T04:36:38;7.13;;;2.65;;
60969;SDS011;46841;48.938;9.502;2023-04-24T04:39:22;3.75;;;1.40;;
60969;SDS011;46841;48.938;9.502;2023-04-24T04:41:56;4.07;;;1.63;;
60969;SDS011;46841;48.938;9.502;2023-04-24T04:44:25;1.80;;;1.30;;
60969;SDS011;46841;48.938;9.502;2023-04-24T04:46:53;4.80;;;1.50;;
60969;SDS011;46841;48.938;9.502;2023-04-24T04:49:25;3.33;;;1.50;;
60969;SDS011;46841;48.938;9.502;2023-04-24T04:51:53;3.85;;;1.55;;
60969;SDS011;46841;48.938;9.502;2023-04-24T04:54:19;4.50;;;1.73;;
60969;SDS011;46841;48.938;9.502;2023-04-24T04:56:44;2.65;;;1.50;;
60969;SDS011;46841;48.938;9.502;2023-04-24T04:59:10;5.72;;;1.90;;
60969;SDS011;46841;48.938;9.502;2023-04-24T05:01:37;2.45;;;1.40;;
60969;SDS011;46841;48.938;9.502;2023-04-24T05:04:05;4.00;;;1.80;;
60969;SDS011;46841;48.938;9.502;2023-04-24T05:06:31;3.42;;;1.85;;
60969;SDS011;46841;48.938;9.502;2023-04-24T05:08:56;2.53;;;1.60;;
60969;SDS011;46841;48.938;9.502;2023-04-24T05:11:34;2.47;;;1.63;;
60969;SDS011;46841;48.938;9.502;2023-04-24T05:14:01;2.00;;;1.67;;
60969;SDS011;46841;48.938;9.502;2023-04-24T05:16:33;3.50;;;1.95;;
60969;SDS011;46841;48.938;9.502;2023-04-24T05:18:59;3.28;;;2.00;;
60969;SDS011;46841;48.938;9.502;2023-04-24T05:21:30;4.60;;;1.98;;
60969;SDS011;46841;48.938;9.502;2023-04-24T05:23:56;3.30;;;2.03;;
60969;SDS011;46841;48.938;9.502;2023-04-24T05:26:40;4.82;;;2.17;;
60969;SDS011;46841;48.938;9.502;2023-04-24T05:29:06;5.70;;;2.22;;
60969;SDS011;46841;48.938;9.502;2023-04-24T05:31:32;6.90;;;2.10;;
60969;SDS011;46841;48.938;9.502;2023-04-24T05:33:58;3.38;;;2.13;;
60969;SDS011;46841;48.938;9.502;2023-04-24T05:36:23;4.43;;;2.28;;
60969;SDS011;46841;48.938;9.502;2023-04-24T05:38:48;6.80;;;2.60;;
60969;SDS011;46841;48.938;9.502;2023-04-24T05:41:14;4.45;;;2.40;;
60969;SDS011;46841;48.938;9.502;2023-04-24T05:43:40;5.50;;;2.80;;
60969;SDS011;46841;48.938;9.502;2023-04-24T05:46:05;5.63;;;2.50;;
60969;SDS011;46841;48.938;9.502;2023-04-24T05:48:31;4.68;;;2.60;;
60969;SDS011;46841;48.938;9.502;2023-04-24T05:50:59;3.55;;;2.60;;
60969;SDS011;46841;48.938;9.502;2023-04-24T05:53:24;4.72;;;2.70;;
60969;SDS011;46841;48.938;9.502;2023-04-24T05:55:50;6.93;;;3.03;;
60969;SDS011;46841;48.938;9.502;2023-04-24T05:58:15;3.90;;;2.58;;
60969;SDS011;46841;48.938;9.502;2023-04-24T06:00:41;7.10;;;3.00;;
60969;SDS011;46841;48.938;9.502;2023-04-24T06:03:07;7.25;;;3.00;;
60969;SDS011;46841;48.938;9.502;2023-04-24T06:05:33;7.13;;;3.03;;
60969;SDS011;46841;48.938;9.502;2023-04-24T06:07:59;4.15;;;2.35;;
60969;SDS011;46841;48.938;9.502;2023-04-24T06:10:31;4.65;;;2.60;;
60969;SDS011;46841;48.938;9.502;2023-04-24T06:12:56;4.57;;;2.70;;
60969;SDS011;46841;48.938;9.502;2023-04-24T06:15:26;7.45;;;2.90;;
60969;SDS011;46841;48.938;9.502;2023-04-24T06:17:56;4.78;;;2.80;;
60969;SDS011;46841;48.938;9.502;2023-04-24T06:20:21;4.93;;;2.80;;
60969;SDS011;46841;48.938;9.502;2023-04-24T06:22:47;4.15;;;3.10;;
60969;SDS011;46841;48.938;9.502;2023-04-24T06:25:12;3.72;;;2.90;;
60969;SDS011;46841;48.938;9.502;2023-04-24T06:27:37;5.90;;;2.95;;
60969;SDS011;46841;48.938;9.502;2023-04-24T06:30:03;5.70;;;3.00;;
60969;SDS011;46841;48.938;9.502;2023-04-24T06:32:28;7.03;;;3.45;;
60969;SDS011;46841;48.938;9.502;2023-04-24T06:34:53;8.65;;;3.10;;
60969;SDS011;46841;48.938;9.502;2023-04-24T06:37:19;7.65;;;3.80;;
60969;SDS011;46841;48.938;9.502;2023-04-24T06:39:45;5.47;;;3.77;;
60969;SDS011;46841;48.938;9.502;2023-04-24T06:42:10;6.18;;;3.88;;
60969;SDS011;46841;48.938;9.502;2023-04-24T06:44:36;5.25;;;3.65;;
60969;SDS011;46841;48.938;9.502;2023-04-24T06:47:06;8.23;;;3.50;;
60969;SDS011;46841;48.938;9.502;2023-04-24T06:49:32;6.60;;;3.47;;
60969;SDS011;46841;48.938;9.502;2023-04-24T06:51:57;6.03;;;3.58;;
60969;SDS011;46841;48.938;9.502;2023-04-24T06:54:22;7.70;;;3.60;;
60969;SDS011;46841;48.938;9.502;2023-04-24T06:56:48;6.32;;;3.63;;
60969;SDS011;46841;48.938;9.502;2023-04-24T06:59:14;6.55;;;3.33;;
60969;SDS011;46841;48.938;9.502;2023-04-24T07:01:40;4.55;;;3.60;;
60969;SDS011;46841;48.938;9.502;2023-04-24T07:04:05;5.90;;;3.35;;
60969;SDS011;46841;48.938;9.502;2023-04-24T07:06:30;5.43;;;3.10;;
60969;SDS011;46841;48.938;9.502;2023-04-24T07:08:56;5.07;;;3.30;;
60969;SDS011;46841;48.938;9.502;2023-04-24T07:11:22;5.47;;;2.95;;
60969;SDS011;46841;48.938;9.502;2023-04-24T07:13:47;4.82;;;3.38;;
60969;SDS011;46841;48.938;9.502;2023-04-24T07:16:12;6.22;;;3.00;;
60969;SDS011;46841;48.938;9.502;2023-04-24T07:18:38;5.10;;;3.05;;
60969;SDS011;46841;48.938;9.502;2023-04-24T07:21:04;7.27;;;2.90;;
60969;SDS011;46841;48.938;9.502;2023-04-24T07:23:30;6.05;;;2.80;;
60969;SDS011;46841;48.938;9.502;2023-04-24T07:25:56;8.00;;;2.83;;
60969;SDS011;46841;48.938;9.502;2023-04-24T07:28:21;3.40;;;2.35;;
60969;SDS011;46841;48.938;9.502;2023-04-24T07:30:46;5.10;;;2.67;;
60969;SDS011;46841;48.938;9.502;2023-04-24T07:33:12;4.28;;;2.70;;
60969;SDS011;46841;48.938;9.502;2023-04-24T07:35:38;4.03;;;2.70;;
60969;SDS011;46841;48.938;9.502;2023-04-24T07:38:03;5.15;;;2.63;;
60969;SDS011;46841;48.938;9.502;2023-04-24T07:40:29;4.10;;;2.95;;
60969;SDS011;46841;48.938;9.502;2023-04-24T07:42:54;4.07;;;2.78;;
60969;SDS011;46841;48.938;9.502;2023-04-24T07:45:19;5.15;;;2.88;;
60969;SDS011;46841;48.938;9.502;2023-04-24T07:47:45;4.10;;;2.75;;
60969;SDS011;46841;48.938;9.502;2023-04-24T07:50:11;6.78;;;3.50;;
60969;SDS011;46841;48.938;9.502;2023-04-24T07:52:37;7.93;;;2.88;;
60969;SDS011;46841;48.938;9.502;2023-04-24T07:55:02;5.35;;;2.88;;
60969;SDS011;46841;48.938;9.502;2023-04-24T07:57:28;5.43;;;2.60;;
60969;SDS011;46841;48.938;9.502;2023-04-24T07:59:53;4.90;;;3.00;;
60969;SDS011;46841;48.938;9.502;2023-04-24T08:02:19;4.65;;;2.83;;
60969;SDS011;46841;48.938;9.502;2023-04-24T08:04:44;4.32;;;2.80;;
60969;SDS011;46841;48.938;9.502;2023-04-24T08:07:10;4.45;;;2.90;;
60969;SDS011;46841;48.938;9.502;2023-04-24T08:12:03;4.18;;;2.30;;
60969;SDS011;46841;48.938;9.502;2023-04-24T08:14:28;5.25;;;2.55;;
60969;SDS011;46841;48.938;9.502;2023-04-24T08:16:54;4.90;;;2.45;;
60969;SDS011;46841;48.938;9.502;2023-04-24T08:19:20;6.10;;;2.67;;
60969;SDS011;46841;48.938;9.502;2023-04-24T08:21:45;4.50;;;2.40;;
60969;SDS011;46841;48.938;9.502;2023-04-24T08:24:11;4.97;;;2.70;;
60969;SDS011;46841;48.938;9.502;2023-04-24T08:26:36;3.92;;;2.30;;
60969;SDS011;46841;48.938;9.502;2023-04-24T08:29:01;4.75;;;2.50;;
60969;SDS011;46841;48.938;9.502;2023-04-24T08:31:27;5.30;;;2.47;;
60969;SDS011;46841;48.938;9.502;2023-04-24T08:33:52;3.88;;;2.33;;
60969;SDS011;46841;48.938;9.502;2023-04-24T08:36:17;4.30;;;2.38;;
60969;SDS011;46841;48.938;9.502;2023-04-24T08:38:43;3.72;;;2.47;;
60969;SDS011;46841;48.938;9.502;2023-04-24T08:41:08;5.43;;;2.40;;
60969;SDS011;46841;48.938;9.502;2023-04-24T08:43:34;5.50;;;2.22;;
60969;SDS011;46841;48.938;9.502;2023-04-24T08:46:01;4.50;;;2.10;;
60969;SDS011;46841;48.938;9.502;2023-04-24T08:48:27;3.30;;;2.00;;
60969;SDS011;46841;48.938;9.502;2023-04-24T08:50:52;3.38;;;1.88;;
60969;SDS011;46841;48.938;9.502;2023-04-24T08:53:18;5.07;;;1.80;;
60969;SDS011;46841;48.938;9.502;2023-04-24T08:55:43;3.17;;;1.83;;
60969;SDS011;46841;48.938;9.502;2023-04-24T08:58:11;2.95;;;1.80;;
60969;SDS011;46841;48.938;9.502;2023-04-24T09:00:38;4.03;;;1.80;;
60969;SDS011;46841;48.938;9.502;2023-04-24T09:03:03;3.50;;;1.83;;
60969;SDS011;46841;48.938;9.502;2023-04-24T09:05:30;4.10;;;1.80;;
60969;SDS011;46841;48.938;9.502;2023-04-24T09:07:56;3.53;;;1.80;;
60969;SDS011;46841;48.938;9.502;2023-04-24T09:10:22;2.92;;;1.70;;
60969;SDS011;46841;48.938;9.502;2023-04-24T09:12:48;3.38;;;1.70;;
60969;SDS011;46841;48.938;9.502;2023-04-24T09:15:15;5.18;;;1.85;;
60969;SDS011;46841;48.938;9.502;2023-04-24T09:17:40;2.80;;;1.80;;
60969;SDS011;46841;48.938;9.502;2023-04-24T09:20:05;4.25;;;1.92;;
60969;SDS011;46841;48.938;9.502;2023-04-24T09:22:31;3.70;;;1.77;;
60969;SDS011;46841;48.938;9.502;2023-04-24T09:25:01;3.03;;;1.80;;
60969;SDS011;46841;48.938;9.502;2023-04-24T09:27:28;4.03;;;1.70;;
60969;SDS011;46841;48.938;9.502;2023-04-24T09:29:54;4.53;;;1.90;;
60969;SDS011;46841;48.938;9.502;2023-04-24T09:32:20;3.13;;;1.80;;
60969;SDS011;46841;48.938;9.502;2023-04-24T09:35:05;3.35;;;1.80;;
60969;SDS011;46841;48.938;9.502;2023-04-24T09:37:34;5.00;;;1.90;;
60969;SDS011;46841;48.938;9.502;2023-04-24T09:42:34;5.43;;;2.35;;
60969;SDS011;46841;48.938;9.502;2023-04-24T09:44:59;4.03;;;1.75;;
60969;SDS011;46841;48.938;9.502;2023-04-24T09:47:24;3.75;;;1.90;;
60969;SDS011;46841;48.938;9.502;2023-04-24T09:49:50;6.68;;;2.10;;
60969;SDS011;46841;48.938;9.502;2023-04-24T09:52:15;5.28;;;1.80;;
60969;SDS011;46841;48.938;9.502;2023-04-24T09:54:40;3.60;;;1.95;;
60969;SDS011;46841;48.938;9.502;2023-04-24T09:57:09;4.82;;;2.42;;
60969;SDS011;46841;48.938;9.502;2023-04-24T09:59:34;2.78;;;1.92;;
60969;SDS011;46841;48.938;9.502;2023-04-24T10:02:00;2.92;;;1.60;;
60969;SDS011;46841;48.938;9.502;2023-04-24T10:04:26;1.98;;;1.50;;
60969;SDS011;46841;48.938;9.502;2023-04-24T10:06:52;3.13;;;1.60;;
60969;SDS011;46841;48.938;9.502;2023-04-24T10:09:19;12.87;;;3.93;;
60969;SDS011;46841;48.938;9.502;2023-04-24T10:11:45;2.28;;;1.73;;
60969;SDS011;46841;48.938;9.502;2023-04-24T10:14:18;2.85;;;1.70;;
60969;SDS011;46841;48.938;9.502;2023-04-24T10:16:43;5.78;;;1.90;;
60969;SDS011;46841;48.938;9.502;2023-04-24T10:19:09;4.80;;;1.90;;
60969;SDS011;46841;48.938;9.502;2023-04-24T10:21:35;3.10;;;1.80;;
60969;SDS011;46841;48.938;9.502;2023-04-24T10:24:07;4.03;;;1.63;;
60969;SDS011;46841;48.938;9.502;2023-04-24T10:26:32;4.97;;;2.03;;
60969;SDS011;46841;48.938;9.502;2023-04-24T10:28:58;2.67;;;1.77;;
60969;SDS011;46841;48.938;9.502;2023-04-24T10:31:24;3.20;;;1.80;;
60969;SDS011;46841;48.938;9.502;2023-04-24T10:33:50;2.30;;;1.73;;
60969;SDS011;46841;48.938;9.502;2023-04-24T10:36:16;2.42;;;1.80;;
60969;SDS011;46841;48.938;9.502;2023-04-24T10:38:42;4.75;;;1.80;;
60969;SDS011;46841;48.938;9.502;2023-04-24T10:41:10;2.67;;;2.03;;
60969;SDS011;46841;48.938;9.502;2023-04-24T10:43:41;4.90;;;2.42;;
60969;SDS011;46841;48.938;9.502;2023-04-24T10:46:06;2.42;;;1.90;;
60969;SDS011;46841;48.938;9.502;2023-04-24T10:48:32;4.03;;;2.20;;
60969;SDS011;46841;48.938;9.502;2023-04-24T10:50:58;4.03;;;2.33;;
60969;SDS011;46841;48.938;9.502;2023-04-24T10:53:24;3.75;;;2.20;;
60969;SDS011;46841;48.938;9.502;2023-04-24T10:58:23;4.13;;;2.13;;
60969;SDS011;46841;48.938;9.502;2023-04-24T11:00:59;5.25;;;2.15;;
60969;SDS011;46841;48.938;9.502;2023-04-24T11:03:25;3.40;;;1.95;;
60969;SDS011;46841;48.938;9.502;2023-04-24T11:05:58;3.43;;;1.80;;
60969;SDS011;46841;48.938;9.502;2023-04-24T11:08:25;3.97;;;2.08;;
60969;SDS011;46841;48.938;9.502;2023-04-24T11:11:10;3.25;;;1.80;;
60969;SDS011;46841;48.938;9.502;2023-04-24T11:18:51;3.35;;;2.45;;
60969;SDS011;46841;48.938;9.502;2023-04-24T11:21:19;4.25;;;2.03;;
60969;SDS011;46841;48.938;9.502;2023-04-24T11:23:45;5.45;;;2.20;;
60969;SDS011;46841;48.938;9.502;2023-04-24T11:26:33;3.15;;;2.10;;
60969;SDS011;46841;48.938;9.502;2023-04-24T11:29:06;4.80;;;2.13;;
60969;SDS011;46841;48.938;9.502;2023-04-24T11:31:39;4.03;;;2.30;;
60969;SDS011;46841;48.938;9.502;2023-04-24T11:36:33;6.03;;;2.20;;
60969;SDS011;46841;48.938;9.502;2023-04-24T11:38:58;3.83;;;2.05;;
60969;SDS011;46841;48.938;9.502;2023-04-24T11:41:24;4.70;;;2.40;;
60969;SDS011;46841;48.938;9.502;2023-04-24T11:43:51;3.37;;;2.17;;
60969;SDS011;46841;48.938;9.502;2023-04-24T11:46:17;4.82;;;2.10;;
60969;SDS011;46841;48.938;9.502;2023-04-24T11:48:45;4.75;;;2.10;;
60969;SDS011;46841;48.938;9.502;2023-04-24T11:51:11;3.17;;;2.13;;
60969;SDS011;46841;48.938;9.502;2023-04-24T11:53:37;2.80;;;1.93;;
60969;SDS011;46841;48.938;9.502;2023-04-24T11:56:03;2.58;;;1.73;;
60969;SDS011;46841;48.938;9.502;2023-04-24T11:58:28;4.38;;;2.00;;
60969;SDS011;46841;48.938;9.502;2023-04-24T12:00:59;6.53;;;1.90;;
60969;SDS011;46841;48.938;9.502;2023-04-24T12:03:26;3.55;;;2.30;;
60969;SDS011;46841;48.938;9.502;2023-04-24T12:05:51;3.45;;;2.20;;
60969;SDS011;46841;48.938;9.502;2023-04-24T12:08:26;3.85;;;2.10;;
60969;SDS011;46841;48.938;9.502;2023-04-24T12:10:52;3.15;;;2.25;;
60969;SDS011;46841;48.938;9.502;2023-04-24T12:13:17;3.95;;;2.30;;
60969;SDS011;46841;48.938;9.502;2023-04-24T12:15:42;4.28;;;2.60;;
60969;SDS011;46841;48.938;9.502;2023-04-24T12:18:11;3.70;;;2.60;;
60969;SDS011;46841;48.938;9.502;2023-04-24T12:20:36;4.05;;;2.47;;
60969;SDS011;46841;48.938;9.502;2023-04-24T12:23:02;4.28;;;2.40;;
60969;SDS011;46841;48.938;9.502;2023-04-24T12:25:33;3.97;;;2.13;;
60969;SDS011;46841;48.938;9.502;2023-04-24T12:30:31;2.88;;;2.00;;
60969;SDS011;46841;48.938;9.502;2023-04-24T12:32:57;2.55;;;1.85;;
60969;SDS011;46841;48.938;9.502;2023-04-24T12:35:23;5.22;;;2.30;;
60969;SDS011;46841;48.938;9.502;2023-04-24T12:37:49;5.00;;;2.90;;
60969;SDS011;46841;48.938;9.502;2023-04-24T12:40:15;4.30;;;2.30;;
60969;SDS011;46841;48.938;9.502;2023-04-24T12:45:09;3.72;;;2.35;;
60969;SDS011;46841;48.938;9.502;2023-04-24T12:47:34;4.75;;;2.72;;
60969;SDS011;46841;48.938;9.502;2023-04-24T12:50:00;4.40;;;2.80;;
60969;SDS011;46841;48.938;9.502;2023-04-24T12:52:26;4.40;;;2.60;;
60969;SDS011;46841;48.938;9.502;2023-04-24T12:54:55;3.72;;;2.35;;
60969;SDS011;46841;48.938;9.502;2023-04-24T12:57:21;5.70;;;2.70;;
60969;SDS011;46841;48.938;9.502;2023-04-24T12:59:47;3.95;;;2.53;;
60969;SDS011;46841;48.938;9.502;2023-04-24T13:02:12;4.00;;;2.50;;
60969;SDS011;46841;48.938;9.502;2023-04-24T13:04:37;3.55;;;2.30;;
60969;SDS011;46841;48.938;9.502;2023-04-24T13:07:03;5.00;;;2.88;;
60969;SDS011;46841;48.938;9.502;2023-04-24T13:09:28;4.05;;;2.53;;
60969;SDS011;46841;48.938;9.502;2023-04-24T13:11:54;4.32;;;2.42;;
60969;SDS011;46841;48.938;9.502;2023-04-24T13:14:19;9.35;;;2.83;;
60969;SDS011;46841;48.938;9.502;2023-04-24T13:16:45;4.70;;;2.78;;
60969;SDS011;46841;48.938;9.502;2023-04-24T13:19:10;4.90;;;2.83;;
60969;SDS011;46841;48.938;9.502;2023-04-24T13:21:35;5.43;;;2.70;;
60969;SDS011;46841;48.938;9.502;2023-04-24T13:24:01;5.28;;;2.63;;
60969;SDS011;46841;48.938;9.502;2023-04-24T13:26:26;4.40;;;2.67;;
60969;SDS011;46841;48.938;9.502;2023-04-24T13:28:52;7.03;;;3.20;;
60969;SDS011;46841;48.938;9.502;2023-04-24T13:31:17;4.20;;;2.50;;
60969;SDS011;46841;48.938;9.502;2023-04-24T13:33:42;5.78;;;2.53;;
60969;SDS011;46841;48.938;9.502;2023-04-24T13:36:08;6.75;;;2.88;;
60969;SDS011;46841;48.938;9.502;2023-04-24T13:38:33;3.70;;;2.60;;
60969;SDS011;46841;48.938;9.502;2023-04-24T13:40:59;5.25;;;3.00;;
60969;SDS011;46841;48.938;9.502;2023-04-24T13:43:24;5.88;;;2.85;;
60969;SDS011;46841;48.938;9.502;2023-04-24T13:45:49;5.85;;;3.50;;
60969;SDS011;46841;48.938;9.502;2023-04-24T13:48:15;5.03;;;2.83;;
60969;SDS011;46841;48.938;9.502;2023-04-24T13:50:41;5.03;;;2.97;;
60969;SDS011;46841;48.938;9.502;2023-04-24T13:53:06;5.47;;;2.90;;
60969;SDS011;46841;48.938;9.502;2023-04-24T13:55:32;7.22;;;2.92;;
60969;SDS011;46841;48.938;9.502;2023-04-24T13:57:57;7.00;;;3.22;;
60969;SDS011;46841;48.938;9.502;2023-04-24T14:00:22;7.00;;;3.00;;
60969;SDS011;46841;48.938;9.502;2023-04-24T14:02:48;4.43;;;2.72;;
60969;SDS011;46841;48.938;9.502;2023-04-24T14:05:13;7.68;;;2.78;;
60969;SDS011;46841;48.938;9.502;2023-04-24T14:07:40;5.75;;;2.85;;
60969;SDS011;46841;48.938;9.502;2023-04-24T14:10:06;3.15;;;2.35;;
60969;SDS011;46841;48.938;9.502;2023-04-24T14:12:31;4.60;;;2.88;;
60969;SDS011;46841;48.938;9.502;2023-04-24T14:14:57;7.45;;;2.92;;
60969;SDS011;46841;48.938;9.502;2023-04-24T14:17:22;6.03;;;2.95;;
60969;SDS011;46841;48.938;9.502;2023-04-24T14:19:47;5.95;;;3.03;;
60969;SDS011;46841;48.938;9.502;2023-04-24T14:22:13;4.38;;;2.85;;
60969;SDS011;46841;48.938;9.502;2023-04-24T14:24:38;4.50;;;2.90;;
60969;SDS011;46841;48.938;9.502;2023-04-24T14:27:03;3.92;;;2.70;;
60969;SDS011;46841;48.938;9.502;2023-04-24T14:29:29;3.90;;;2.78;;
60969;SDS011;46841;48.938;9.502;2023-04-24T14:31:54;5.82;;;3.28;;
60969;SDS011;46841;48.938;9.502;2023-04-24T14:34:20;6.93;;;2.90;;
60969;SDS011;46841;48.938;9.502;2023-04-24T14:36:45;3.50;;;2.40;;
60969;SDS011;46841;48.938;9.502;2023-04-24T14:39:10;4.63;;;2.55;;
60969;SDS011;46841;48.938;9.502;2023-04-24T14:41:36;6.18;;;2.78;;
60969;SDS011;46841;48.938;9.502;2023-04-24T14:44:02;5.43;;;2.53;;
60969;SDS011;46841;48.938;9.502;2023-04-24T14:46:28;4.57;;;2.55;;
60969;SDS011;46841;48.938;9.502;2023-04-24T14:48:55;4.18;;;2.72;;
60969;SDS011;46841;48.938;9.502;2023-04-24T14:51:20;7.00;;;2.53;;
60969;SDS011;46841;48.938;9.502;2023-04-24T14:53:45;5.82;;;3.10;;
60969;SDS011;46841;48.938;9.502;2023-04-24T14:56:12;4.47;;;2.83;;
60969;SDS011;46841;48.938;9.502;2023-04-24T14:58:38;4.40;;;2.80;;
60969;SDS011;46841;48.938;9.502;2023-04-24T15:01:03;6.35;;;3.40;;
60969;SDS011;46841;48.938;9.502;2023-04-24T15:03:29;3.58;;;2.30;;
60969;SDS011;46841;48.938;9.502;2023-04-24T15:05:54;7.10;;;2.97;;
60969;SDS011;46841;48.938;9.502;2023-04-24T15:08:19;4.72;;;2.42;;